Pendaries, New Mexico
Current Conditions -  °F | °C
As of 7:53 PM on Thursday 27 Nov 2014 (Local Time) from KLVS Reporting Station
Clear Clear  
Wind Chill: 51°   Ceiling: Unl
Heat Index: 51°   Visibility: 10mi
Dew Point:   Wind: 3mph
Humidity: 17%   Direction: 220°SW
Pressure: 30.32"   Gusts: NA
Location:  35.8214°N, 105.333°W
Report Text: KLVS 280253Z AUTO 22003KT 10SM CLR 11/M14 A3032 RMK AO2 SLP213 T01061139 50001
Loading
Personal Weather Stations






























Interactive Weather Map New forecast layout! Learn more

10-Day Weather Forecast

Advertisements
Track Severe Weather on mobile